sensor_id;sensor_type;location;lat;lon;timestamp;P1;durP1;ratioP1;P2;durP2;ratioP2
7493;SDS011;3788;49.902;8.590;2022-12-07T00:01:50;6.00;;;5.23;;
7493;SDS011;3788;49.902;8.590;2022-12-07T00:04:17;7.20;;;5.30;;
7493;SDS011;3788;49.902;8.590;2022-12-07T00:06:45;7.77;;;5.53;;
7493;SDS011;3788;49.902;8.590;2022-12-07T00:09:17;7.83;;;5.53;;
7493;SDS011;3788;49.902;8.590;2022-12-07T00:11:47;7.60;;;5.30;;
7493;SDS011;3788;49.902;8.590;2022-12-07T00:14:16;7.33;;;5.17;;
7493;SDS011;3788;49.902;8.590;2022-12-07T00:16:44;7.33;;;5.30;;
7493;SDS011;3788;49.902;8.590;2022-12-07T00:19:12;7.00;;;4.93;;
7493;SDS011;3788;49.902;8.590;2022-12-07T00:21:39;6.07;;;4.77;;
7493;SDS011;3788;49.902;8.590;2022-12-07T00:24:06;5.60;;;4.63;;
7493;SDS011;3788;49.902;8.590;2022-12-07T00:26:34;5.90;;;4.80;;
7493;SDS011;3788;49.902;8.590;2022-12-07T00:29:02;6.27;;;4.87;;
7493;SDS011;3788;49.902;8.590;2022-12-07T00:31:32;7.37;;;5.43;;
7493;SDS011;3788;49.902;8.590;2022-12-07T00:34:03;6.27;;;4.83;;
7493;SDS011;3788;49.902;8.590;2022-12-07T00:36:31;6.13;;;5.20;;
7493;SDS011;3788;49.902;8.590;2022-12-07T00:38:58;7.77;;;6.17;;
7493;SDS011;3788;49.902;8.590;2022-12-07T00:41:27;7.73;;;5.70;;
7493;SDS011;3788;49.902;8.590;2022-12-07T00:43:55;8.27;;;5.70;;
7493;SDS011;3788;49.902;8.590;2022-12-07T00:46:22;7.73;;;5.70;;
7493;SDS011;3788;49.902;8.590;2022-12-07T00:48:51;10.23;;;6.33;;
7493;SDS011;3788;49.902;8.590;2022-12-07T00:51:20;8.53;;;6.13;;
7493;SDS011;3788;49.902;8.590;2022-12-07T00:53:48;7.50;;;6.20;;
7493;SDS011;3788;49.902;8.590;2022-12-07T00:56:15;8.23;;;6.03;;
7493;SDS011;3788;49.902;8.590;2022-12-07T00:58:44;7.47;;;6.03;;
7493;SDS011;3788;49.902;8.590;2022-12-07T01:01:16;7.80;;;5.80;;
7493;SDS011;3788;49.902;8.590;2022-12-07T01:03:42;9.03;;;6.13;;
7493;SDS011;3788;49.902;8.590;2022-12-07T01:06:13;9.30;;;6.70;;
7493;SDS011;3788;49.902;8.590;2022-12-07T01:08:40;8.87;;;6.23;;
7493;SDS011;3788;49.902;8.590;2022-12-07T01:11:07;7.70;;;5.57;;
7493;SDS011;3788;49.902;8.590;2022-12-07T01:13:37;7.80;;;5.67;;
7493;SDS011;3788;49.902;8.590;2022-12-07T01:16:04;8.60;;;6.57;;
7493;SDS011;3788;49.902;8.590;2022-12-07T01:18:34;7.07;;;5.47;;
7493;SDS011;3788;49.902;8.590;2022-12-07T01:21:02;9.50;;;6.43;;
7493;SDS011;3788;49.902;8.590;2022-12-07T01:23:32;7.00;;;5.30;;
7493;SDS011;3788;49.902;8.590;2022-12-07T01:26:01;6.50;;;5.30;;
7493;SDS011;3788;49.902;8.590;2022-12-07T01:28:30;6.43;;;5.40;;
7493;SDS011;3788;49.902;8.590;2022-12-07T01:30:57;7.50;;;5.60;;
7493;SDS011;3788;49.902;8.590;2022-12-07T01:33:26;7.00;;;5.30;;
7493;SDS011;3788;49.902;8.590;2022-12-07T01:35:53;7.20;;;5.70;;
7493;SDS011;3788;49.902;8.590;2022-12-07T01:38:20;7.63;;;5.77;;
7493;SDS011;3788;49.902;8.590;2022-12-07T01:40:54;7.07;;;5.37;;
7493;SDS011;3788;49.902;8.590;2022-12-07T01:43:21;8.37;;;5.97;;
7493;SDS011;3788;49.902;8.590;2022-12-07T01:45:49;8.30;;;5.67;;
7493;SDS011;3788;49.902;8.590;2022-12-07T01:48:17;7.33;;;5.60;;
7493;SDS011;3788;49.902;8.590;2022-12-07T01:50:47;8.83;;;6.27;;
7493;SDS011;3788;49.902;8.590;2022-12-07T01:53:16;7.50;;;5.30;;
7493;SDS011;3788;49.902;8.590;2022-12-07T01:55:44;6.87;;;5.30;;
7493;SDS011;3788;49.902;8.590;2022-12-07T01:58:14;6.23;;;5.47;;
7493;SDS011;3788;49.902;8.590;2022-12-07T02:00:42;9.60;;;5.80;;
7493;SDS011;3788;49.902;8.590;2022-12-07T02:03:11;7.60;;;5.73;;
7493;SDS011;3788;49.902;8.590;2022-12-07T02:05:42;8.47;;;6.03;;
7493;SDS011;3788;49.902;8.590;2022-12-07T02:08:10;6.40;;;5.50;;
7493;SDS011;3788;49.902;8.590;2022-12-07T02:10:38;7.37;;;5.83;;
7493;SDS011;3788;49.902;8.590;2022-12-07T02:13:06;10.03;;;6.40;;
7493;SDS011;3788;49.902;8.590;2022-12-07T02:15:51;7.57;;;5.80;;
7493;SDS011;3788;49.902;8.590;2022-12-07T02:18:32;9.17;;;6.47;;
7493;SDS011;3788;49.902;8.590;2022-12-07T02:21:12;8.43;;;6.17;;
7493;SDS011;3788;49.902;8.590;2022-12-07T02:23:58;9.67;;;6.17;;
7493;SDS011;3788;49.902;8.590;2022-12-07T02:26:49;8.00;;;5.87;;
7493;SDS011;3788;49.902;8.590;2022-12-07T02:29:35;9.10;;;6.47;;
7493;SDS011;3788;49.902;8.590;2022-12-07T02:32:07;7.57;;;5.80;;
7493;SDS011;3788;49.902;8.590;2022-12-07T02:34:42;9.87;;;6.47;;
7493;SDS011;3788;49.902;8.590;2022-12-07T02:37:18;8.60;;;6.03;;
7493;SDS011;3788;49.902;8.590;2022-12-07T02:39:53;9.73;;;7.17;;
7493;SDS011;3788;49.902;8.590;2022-12-07T02:42:26;8.63;;;5.60;;
7493;SDS011;3788;49.902;8.590;2022-12-07T02:45:01;11.00;;;6.10;;
7493;SDS011;3788;49.902;8.590;2022-12-07T02:47:31;8.53;;;6.10;;
7493;SDS011;3788;49.902;8.590;2022-12-07T02:49:59;8.77;;;5.60;;
7493;SDS011;3788;49.902;8.590;2022-12-07T02:52:28;9.33;;;6.27;;
7493;SDS011;3788;49.902;8.590;2022-12-07T02:54:55;7.97;;;5.80;;
7493;SDS011;3788;49.902;8.590;2022-12-07T02:57:28;8.23;;;6.00;;
7493;SDS011;3788;49.902;8.590;2022-12-07T03:00:09;9.20;;;6.57;;
7493;SDS011;3788;49.902;8.590;2022-12-07T03:02:42;8.93;;;6.43;;
7493;SDS011;3788;49.902;8.590;2022-12-07T03:05:26;9.23;;;6.73;;
7493;SDS011;3788;49.902;8.590;2022-12-07T03:08:02;9.50;;;6.40;;
7493;SDS011;3788;49.902;8.590;2022-12-07T03:10:35;11.23;;;6.93;;
7493;SDS011;3788;49.902;8.590;2022-12-07T03:13:15;8.43;;;6.50;;
7493;SDS011;3788;49.902;8.590;2022-12-07T03:15:49;8.90;;;6.03;;
7493;SDS011;3788;49.902;8.590;2022-12-07T03:18:22;11.17;;;6.83;;
7493;SDS011;3788;49.902;8.590;2022-12-07T03:20:52;8.00;;;6.30;;
7493;SDS011;3788;49.902;8.590;2022-12-07T03:23:23;7.80;;;5.80;;
7493;SDS011;3788;49.902;8.590;2022-12-07T03:25:53;7.23;;;5.47;;
7493;SDS011;3788;49.902;8.590;2022-12-07T03:28:24;7.83;;;5.83;;
7493;SDS011;3788;49.902;8.590;2022-12-07T03:30:57;8.27;;;6.23;;
7493;SDS011;3788;49.902;8.590;2022-12-07T03:33:30;7.87;;;5.87;;
7493;SDS011;3788;49.902;8.590;2022-12-07T03:36:01;7.83;;;5.47;;
7493;SDS011;3788;49.902;8.590;2022-12-07T03:38:32;8.37;;;6.20;;
7493;SDS011;3788;49.902;8.590;2022-12-07T03:41:04;10.70;;;6.87;;
7493;SDS011;3788;49.902;8.590;2022-12-07T03:43:34;9.67;;;6.07;;
7493;SDS011;3788;49.902;8.590;2022-12-07T03:46:05;9.27;;;6.10;;
7493;SDS011;3788;49.902;8.590;2022-12-07T03:48:42;10.67;;;7.30;;
7493;SDS011;3788;49.902;8.590;2022-12-07T03:51:18;9.50;;;6.90;;
7493;SDS011;3788;49.902;8.590;2022-12-07T03:53:49;10.37;;;6.53;;
7493;SDS011;3788;49.902;8.590;2022-12-07T03:56:21;8.43;;;6.00;;
7493;SDS011;3788;49.902;8.590;2022-12-07T03:58:48;7.63;;;5.60;;
7493;SDS011;3788;49.902;8.590;2022-12-07T04:01:18;8.90;;;6.40;;
7493;SDS011;3788;49.902;8.590;2022-12-07T04:03:45;7.93;;;6.00;;
7493;SDS011;3788;49.902;8.590;2022-12-07T04:06:12;7.87;;;5.90;;
7493;SDS011;3788;49.902;8.590;2022-12-07T04:08:38;8.37;;;6.03;;
7493;SDS011;3788;49.902;8.590;2022-12-07T04:11:05;10.50;;;6.90;;
7493;SDS011;3788;49.902;8.590;2022-12-07T04:13:32;8.93;;;6.23;;
7493;SDS011;3788;49.902;8.590;2022-12-07T04:16:20;8.80;;;6.20;;
7493;SDS011;3788;49.902;8.590;2022-12-07T04:18:47;9.43;;;6.70;;
7493;SDS011;3788;49.902;8.590;2022-12-07T04:21:14;8.43;;;6.47;;
7493;SDS011;3788;49.902;8.590;2022-12-07T04:23:40;9.13;;;7.00;;
7493;SDS011;3788;49.902;8.590;2022-12-07T04:26:07;10.97;;;6.70;;
7493;SDS011;3788;49.902;8.590;2022-12-07T04:28:34;10.10;;;6.57;;
7493;SDS011;3788;49.902;8.590;2022-12-07T04:31:00;10.30;;;6.73;;
7493;SDS011;3788;49.902;8.590;2022-12-07T04:33:28;9.60;;;6.80;;
7493;SDS011;3788;49.902;8.590;2022-12-07T04:35:55;9.80;;;6.90;;
7493;SDS011;3788;49.902;8.590;2022-12-07T04:38:23;8.07;;;6.57;;
7493;SDS011;3788;49.902;8.590;2022-12-07T04:40:49;8.97;;;6.30;;
7493;SDS011;3788;49.902;8.590;2022-12-07T04:43:16;10.50;;;7.00;;
7493;SDS011;3788;49.902;8.590;2022-12-07T04:45:45;9.10;;;6.70;;
7493;SDS011;3788;49.902;8.590;2022-12-07T04:48:12;8.27;;;6.13;;
7493;SDS011;3788;49.902;8.590;2022-12-07T04:50:40;8.97;;;6.50;;
7493;SDS011;3788;49.902;8.590;2022-12-07T04:53:07;11.10;;;7.17;;
7493;SDS011;3788;49.902;8.590;2022-12-07T04:55:33;9.80;;;6.60;;
7493;SDS011;3788;49.902;8.590;2022-12-07T04:58:00;10.10;;;7.23;;
7493;SDS011;3788;49.902;8.590;2022-12-07T05:00:27;9.93;;;6.60;;
7493;SDS011;3788;49.902;8.590;2022-12-07T05:02:54;8.70;;;6.77;;
7493;SDS011;3788;49.902;8.590;2022-12-07T05:05:20;9.37;;;6.27;;
7493;SDS011;3788;49.902;8.590;2022-12-07T05:07:49;10.60;;;6.73;;
7493;SDS011;3788;49.902;8.590;2022-12-07T05:10:15;8.37;;;6.27;;
7493;SDS011;3788;49.902;8.590;2022-12-07T05:12:42;9.23;;;6.10;;
7493;SDS011;3788;49.902;8.590;2022-12-07T05:15:10;8.67;;;5.90;;
7493;SDS011;3788;49.902;8.590;2022-12-07T05:17:37;8.50;;;5.97;;
7493;SDS011;3788;49.902;8.590;2022-12-07T05:20:04;9.90;;;6.67;;
7493;SDS011;3788;49.902;8.590;2022-12-07T05:22:32;9.90;;;6.43;;
7493;SDS011;3788;49.902;8.590;2022-12-07T05:25:00;9.97;;;6.70;;
7493;SDS011;3788;49.902;8.590;2022-12-07T05:27:27;7.73;;;6.27;;
7493;SDS011;3788;49.902;8.590;2022-12-07T05:29:53;9.97;;;6.10;;
7493;SDS011;3788;49.902;8.590;2022-12-07T05:32:20;9.77;;;6.77;;
7493;SDS011;3788;49.902;8.590;2022-12-07T05:34:46;9.70;;;6.17;;
7493;SDS011;3788;49.902;8.590;2022-12-07T05:37:13;6.47;;;5.23;;
7493;SDS011;3788;49.902;8.590;2022-12-07T05:39:40;9.43;;;6.37;;
7493;SDS011;3788;49.902;8.590;2022-12-07T05:42:09;9.03;;;6.10;;
7493;SDS011;3788;49.902;8.590;2022-12-07T05:44:39;8.77;;;6.43;;
7493;SDS011;3788;49.902;8.590;2022-12-07T05:47:07;7.80;;;5.90;;
7493;SDS011;3788;49.902;8.590;2022-12-07T05:49:34;8.80;;;5.67;;
7493;SDS011;3788;49.902;8.590;2022-12-07T05:52:00;8.87;;;6.47;;
7493;SDS011;3788;49.902;8.590;2022-12-07T05:54:27;10.83;;;6.93;;
7493;SDS011;3788;49.902;8.590;2022-12-07T05:56:54;6.67;;;5.47;;
7493;SDS011;3788;49.902;8.590;2022-12-07T05:59:23;9.93;;;6.77;;
7493;SDS011;3788;49.902;8.590;2022-12-07T06:01:49;8.63;;;5.73;;
7493;SDS011;3788;49.902;8.590;2022-12-07T06:04:16;9.53;;;6.63;;
7493;SDS011;3788;49.902;8.590;2022-12-07T06:06:43;7.97;;;5.97;;
7493;SDS011;3788;49.902;8.590;2022-12-07T06:09:10;7.60;;;5.30;;
7493;SDS011;3788;49.902;8.590;2022-12-07T06:11:37;8.73;;;5.33;;
7493;SDS011;3788;49.902;8.590;2022-12-07T06:14:24;8.50;;;5.77;;
7493;SDS011;3788;49.902;8.590;2022-12-07T06:16:50;6.63;;;5.57;;
7493;SDS011;3788;49.902;8.590;2022-12-07T06:19:17;9.37;;;6.77;;
7493;SDS011;3788;49.902;8.590;2022-12-07T06:21:44;10.80;;;6.17;;
7493;SDS011;3788;49.902;8.590;2022-12-07T06:24:11;8.43;;;6.13;;
7493;SDS011;3788;49.902;8.590;2022-12-07T06:26:40;8.97;;;5.47;;
7493;SDS011;3788;49.902;8.590;2022-12-07T06:29:07;7.60;;;5.83;;
7493;SDS011;3788;49.902;8.590;2022-12-07T06:31:36;8.77;;;5.60;;
7493;SDS011;3788;49.902;8.590;2022-12-07T06:34:04;9.27;;;5.60;;
7493;SDS011;3788;49.902;8.590;2022-12-07T06:36:32;10.03;;;5.77;;
7493;SDS011;3788;49.902;8.590;2022-12-07T06:38:59;8.00;;;5.73;;
7493;SDS011;3788;49.902;8.590;2022-12-07T06:41:26;7.80;;;5.70;;
7493;SDS011;3788;49.902;8.590;2022-12-07T06:43:53;7.47;;;5.70;;
7493;SDS011;3788;49.902;8.590;2022-12-07T06:46:19;9.73;;;6.27;;
7493;SDS011;3788;49.902;8.590;2022-12-07T06:48:48;7.17;;;5.70;;
7493;SDS011;3788;49.902;8.590;2022-12-07T06:51:14;8.67;;;6.07;;
7493;SDS011;3788;49.902;8.590;2022-12-07T06:53:41;7.90;;;6.13;;
7493;SDS011;3788;49.902;8.590;2022-12-07T06:56:08;10.23;;;7.17;;
7493;SDS011;3788;49.902;8.590;2022-12-07T06:58:34;9.83;;;7.17;;
7493;SDS011;3788;49.902;8.590;2022-12-07T07:01:01;11.23;;;7.70;;
7493;SDS011;3788;49.902;8.590;2022-12-07T07:03:28;11.40;;;7.53;;
7493;SDS011;3788;49.902;8.590;2022-12-07T07:05:57;11.90;;;7.10;;
7493;SDS011;3788;49.902;8.590;2022-12-07T07:08:23;11.27;;;7.47;;
7493;SDS011;3788;49.902;8.590;2022-12-07T07:10:50;11.67;;;7.13;;
7493;SDS011;3788;49.902;8.590;2022-12-07T07:13:17;10.53;;;7.53;;
7493;SDS011;3788;49.902;8.590;2022-12-07T07:15:44;15.43;;;8.77;;
7493;SDS011;3788;49.902;8.590;2022-12-07T07:18:11;10.30;;;7.37;;
7493;SDS011;3788;49.902;8.590;2022-12-07T07:20:38;8.47;;;6.10;;
7493;SDS011;3788;49.902;8.590;2022-12-07T07:23:06;8.77;;;6.47;;
7493;SDS011;3788;49.902;8.590;2022-12-07T07:25:33;9.40;;;6.37;;
7493;SDS011;3788;49.902;8.590;2022-12-07T07:28:02;12.10;;;6.70;;
7493;SDS011;3788;49.902;8.590;2022-12-07T07:30:29;9.27;;;7.10;;
7493;SDS011;3788;49.902;8.590;2022-12-07T07:32:56;10.87;;;7.63;;
7493;SDS011;3788;49.902;8.590;2022-12-07T07:35:24;9.67;;;6.60;;
7493;SDS011;3788;49.902;8.590;2022-12-07T07:37:51;11.10;;;6.77;;
7493;SDS011;3788;49.902;8.590;2022-12-07T07:40:19;9.10;;;6.70;;
7493;SDS011;3788;49.902;8.590;2022-12-07T07:42:46;9.03;;;6.80;;
7493;SDS011;3788;49.902;8.590;2022-12-07T07:45:14;7.80;;;6.00;;
7493;SDS011;3788;49.902;8.590;2022-12-07T07:47:41;7.77;;;6.50;;
7493;SDS011;3788;49.902;8.590;2022-12-07T07:50:08;8.30;;;6.43;;
7493;SDS011;3788;49.902;8.590;2022-12-07T07:52:35;8.63;;;6.33;;
7493;SDS011;3788;49.902;8.590;2022-12-07T07:55:03;8.53;;;6.47;;
7493;SDS011;3788;49.902;8.590;2022-12-07T07:57:32;9.80;;;6.80;;
7493;SDS011;3788;49.902;8.590;2022-12-07T07:59:58;8.43;;;6.20;;
7493;SDS011;3788;49.902;8.590;2022-12-07T08:02:25;8.83;;;6.10;;
7493;SDS011;3788;49.902;8.590;2022-12-07T08:04:54;9.57;;;6.57;;
7493;SDS011;3788;49.902;8.590;2022-12-07T08:07:21;9.00;;;6.20;;
7493;SDS011;3788;49.902;8.590;2022-12-07T08:09:48;8.00;;;6.63;;
7493;SDS011;3788;49.902;8.590;2022-12-07T08:12:15;9.17;;;6.97;;
7493;SDS011;3788;49.902;8.590;2022-12-07T08:14:43;11.10;;;7.37;;
7493;SDS011;3788;49.902;8.590;2022-12-07T08:17:09;10.47;;;6.67;;
7493;SDS011;3788;49.902;8.590;2022-12-07T08:19:37;9.80;;;6.33;;
7493;SDS011;3788;49.902;8.590;2022-12-07T08:22:04;10.13;;;6.80;;
7493;SDS011;3788;49.902;8.590;2022-12-07T08:24:32;8.60;;;6.47;;
7493;SDS011;3788;49.902;8.590;2022-12-07T08:26:59;8.27;;;5.83;;
7493;SDS011;3788;49.902;8.590;2022-12-07T08:29:26;8.13;;;6.43;;
7493;SDS011;3788;49.902;8.590;2022-12-07T08:31:54;11.30;;;7.30;;
7493;SDS011;3788;49.902;8.590;2022-12-07T08:34:21;8.13;;;6.30;;
7493;SDS011;3788;49.902;8.590;2022-12-07T08:36:48;8.50;;;6.63;;
7493;SDS011;3788;49.902;8.590;2022-12-07T08:39:15;10.50;;;7.10;;
7493;SDS011;3788;49.902;8.590;2022-12-07T08:41:42;12.10;;;7.00;;
7493;SDS011;3788;49.902;8.590;2022-12-07T08:44:09;9.60;;;6.93;;
7493;SDS011;3788;49.902;8.590;2022-12-07T08:46:36;10.80;;;7.17;;
7493;SDS011;3788;49.902;8.590;2022-12-07T08:49:08;9.80;;;7.10;;
7493;SDS011;3788;49.902;8.590;2022-12-07T08:51:38;8.53;;;6.30;;
7493;SDS011;3788;49.902;8.590;2022-12-07T08:54:07;8.83;;;7.03;;
7493;SDS011;3788;49.902;8.590;2022-12-07T08:56:36;8.90;;;6.43;;
7493;SDS011;3788;49.902;8.590;2022-12-07T08:59:03;9.40;;;6.70;;
7493;SDS011;3788;49.902;8.590;2022-12-07T09:01:32;9.60;;;6.87;;
7493;SDS011;3788;49.902;8.590;2022-12-07T09:03:59;9.33;;;6.97;;
7493;SDS011;3788;49.902;8.590;2022-12-07T09:06:28;10.13;;;7.00;;
7493;SDS011;3788;49.902;8.590;2022-12-07T09:08:56;9.80;;;7.17;;
7493;SDS011;3788;49.902;8.590;2022-12-07T09:11:24;9.30;;;6.50;;
7493;SDS011;3788;49.902;8.590;2022-12-07T09:13:51;10.23;;;7.00;;
7493;SDS011;3788;49.902;8.590;2022-12-07T09:16:18;10.23;;;7.47;;
7493;SDS011;3788;49.902;8.590;2022-12-07T09:18:45;9.53;;;7.53;;
7493;SDS011;3788;49.902;8.590;2022-12-07T09:21:12;9.33;;;7.47;;
7493;SDS011;3788;49.902;8.590;2022-12-07T09:23:42;10.13;;;7.33;;
7493;SDS011;3788;49.902;8.590;2022-12-07T09:26:08;11.87;;;7.33;;
7493;SDS011;3788;49.902;8.590;2022-12-07T09:28:35;8.50;;;6.97;;
7493;SDS011;3788;49.902;8.590;2022-12-07T09:31:02;8.73;;;6.83;;
7493;SDS011;3788;49.902;8.590;2022-12-07T09:33:29;11.63;;;7.33;;
7493;SDS011;3788;49.902;8.590;2022-12-07T09:35:56;9.23;;;6.37;;
7493;SDS011;3788;49.902;8.590;2022-12-07T09:38:22;9.80;;;7.40;;
7493;SDS011;3788;49.902;8.590;2022-12-07T09:40:53;9.17;;;6.60;;
7493;SDS011;3788;49.902;8.590;2022-12-07T09:43:21;9.50;;;6.77;;
7493;SDS011;3788;49.902;8.590;2022-12-07T09:45:50;10.33;;;7.77;;
7493;SDS011;3788;49.902;8.590;2022-12-07T09:48:20;9.93;;;7.30;;
7493;SDS011;3788;49.902;8.590;2022-12-07T09:50:49;9.83;;;7.13;;
7493;SDS011;3788;49.902;8.590;2022-12-07T09:53:20;12.60;;;8.37;;
7493;SDS011;3788;49.902;8.590;2022-12-07T09:55:50;13.17;;;7.87;;
7493;SDS011;3788;49.902;8.590;2022-12-07T09:58:20;13.33;;;8.80;;
7493;SDS011;3788;49.902;8.590;2022-12-07T10:00:49;12.63;;;8.60;;
7493;SDS011;3788;49.902;8.590;2022-12-07T10:03:19;14.80;;;8.33;;
7493;SDS011;3788;49.902;8.590;2022-12-07T10:05:47;11.97;;;8.53;;
7493;SDS011;3788;49.902;8.590;2022-12-07T10:08:16;12.37;;;8.83;;
7493;SDS011;3788;49.902;8.590;2022-12-07T10:10:43;10.00;;;7.20;;
7493;SDS011;3788;49.902;8.590;2022-12-07T10:13:13;7.57;;;6.17;;
7493;SDS011;3788;49.902;8.590;2022-12-07T10:15:42;8.33;;;6.23;;
7493;SDS011;3788;49.902;8.590;2022-12-07T10:23:58;8.47;;;5.53;;
7493;SDS011;3788;49.902;8.590;2022-12-07T10:26:28;7.80;;;5.60;;
7493;SDS011;3788;49.902;8.590;2022-12-07T10:28:59;7.63;;;5.87;;
7493;SDS011;3788;49.902;8.590;2022-12-07T10:31:28;6.03;;;5.13;;
7493;SDS011;3788;49.902;8.590;2022-12-07T10:33:55;6.40;;;5.53;;
7493;SDS011;3788;49.902;8.590;2022-12-07T10:36:24;7.03;;;5.13;;
7493;SDS011;3788;49.902;8.590;2022-12-07T10:38:53;6.50;;;5.00;;
7493;SDS011;3788;49.902;8.590;2022-12-07T10:41:26;5.97;;;5.20;;
7493;SDS011;3788;49.902;8.590;2022-12-07T10:43:53;7.07;;;4.77;;
7493;SDS011;3788;49.902;8.590;2022-12-07T10:46:46;7.00;;;5.27;;
7493;SDS011;3788;49.902;8.590;2022-12-07T10:49:41;6.20;;;4.70;;
7493;SDS011;3788;49.902;8.590;2022-12-07T10:52:24;9.07;;;5.03;;
7493;SDS011;3788;49.902;8.590;2022-12-07T10:55:06;6.73;;;5.63;;
7493;SDS011;3788;49.902;8.590;2022-12-07T10:57:45;8.27;;;5.17;;
7493;SDS011;3788;49.902;8.590;2022-12-07T11:00:21;5.97;;;4.90;;
7493;SDS011;3788;49.902;8.590;2022-12-07T11:05:54;6.33;;;5.07;;
7493;SDS011;3788;49.902;8.590;2022-12-07T11:08:34;7.00;;;4.30;;
7493;SDS011;3788;49.902;8.590;2022-12-07T11:11:12;6.93;;;4.73;;
7493;SDS011;3788;49.902;8.590;2022-12-07T11:13:44;7.23;;;4.70;;
7493;SDS011;3788;49.902;8.590;2022-12-07T11:16:22;5.43;;;4.17;;
7493;SDS011;3788;49.902;8.590;2022-12-07T11:19:01;7.03;;;4.30;;
7493;SDS011;3788;49.902;8.590;2022-12-07T11:21:40;7.03;;;4.37;;
7493;SDS011;3788;49.902;8.590;2022-12-07T11:24:14;6.23;;;4.00;;
7493;SDS011;3788;49.902;8.590;2022-12-07T11:26:54;6.87;;;4.57;;
7493;SDS011;3788;49.902;8.590;2022-12-07T11:29:35;7.63;;;4.40;;
7493;SDS011;3788;49.902;8.590;2022-12-07T11:32:30;6.43;;;4.37;;
7493;SDS011;3788;49.902;8.590;2022-12-07T11:35:14;4.90;;;4.20;;
7493;SDS011;3788;49.902;8.590;2022-12-07T11:37:49;5.93;;;3.83;;
7493;SDS011;3788;49.902;8.590;2022-12-07T11:40:19;7.20;;;4.23;;
7493;SDS011;3788;49.902;8.590;2022-12-07T11:42:53;5.97;;;4.70;;
7493;SDS011;3788;49.902;8.590;2022-12-07T11:45:26;5.83;;;4.20;;
7493;SDS011;3788;49.902;8.590;2022-12-07T11:47:55;5.77;;;4.23;;
7493;SDS011;3788;49.902;8.590;2022-12-07T11:50:30;4.47;;;3.33;;
7493;SDS011;3788;49.902;8.590;2022-12-07T11:53:03;5.37;;;3.93;;
7493;SDS011;3788;49.902;8.590;2022-12-07T11:55:40;3.73;;;3.37;;
7493;SDS011;3788;49.902;8.590;2022-12-07T11:58:14;4.80;;;3.27;;
7493;SDS011;3788;49.902;8.590;2022-12-07T12:00:48;5.87;;;3.30;;
7493;SDS011;3788;49.902;8.590;2022-12-07T12:03:22;5.37;;;3.37;;
7493;SDS011;3788;49.902;8.590;2022-12-07T12:05:56;6.50;;;3.93;;
7493;SDS011;3788;49.902;8.590;2022-12-07T12:08:23;6.03;;;4.07;;
7493;SDS011;3788;49.902;8.590;2022-12-07T12:10:57;4.03;;;3.13;;
7493;SDS011;3788;49.902;8.590;2022-12-07T12:16:32;3.60;;;2.73;;
7493;SDS011;3788;49.902;8.590;2022-12-07T12:19:28;4.23;;;2.40;;
7493;SDS011;3788;49.902;8.590;2022-12-07T12:22:02;2.90;;;2.00;;
7493;SDS011;3788;49.902;8.590;2022-12-07T12:24:36;4.33;;;2.00;;
7493;SDS011;3788;49.902;8.590;2022-12-07T12:27:07;3.40;;;2.27;;
7493;SDS011;3788;49.902;8.590;2022-12-07T12:29:36;3.40;;;1.97;;
7493;SDS011;3788;49.902;8.590;2022-12-07T12:32:06;4.40;;;2.13;;
7493;SDS011;3788;49.902;8.590;2022-12-07T12:34:40;2.60;;;1.80;;
7493;SDS011;3788;49.902;8.590;2022-12-07T12:37:40;3.10;;;2.23;;
7493;SDS011;3788;49.902;8.590;2022-12-07T12:43:26;3.87;;;1.90;;
7493;SDS011;3788;49.902;8.590;2022-12-07T12:49:32;2.57;;;1.67;;
7493;SDS011;3788;49.902;8.590;2022-12-07T12:55:29;3.87;;;1.53;;
7493;SDS011;3788;49.902;8.590;2022-12-07T12:58:30;4.47;;;2.00;;
7493;SDS011;3788;49.902;8.590;2022-12-07T13:04:13;3.53;;;2.00;;
7493;SDS011;3788;49.902;8.590;2022-12-07T13:06:47;2.27;;;2.03;;
7493;SDS011;3788;49.902;8.590;2022-12-07T13:09:17;5.30;;;2.50;;
7493;SDS011;3788;49.902;8.590;2022-12-07T13:11:47;3.50;;;2.57;;
7493;SDS011;3788;49.902;8.590;2022-12-07T13:17:09;5.57;;;2.77;;
7493;SDS011;3788;49.902;8.590;2022-12-07T13:25:21;2.87;;;2.00;;
7493;SDS011;3788;49.902;8.590;2022-12-07T13:27:57;3.10;;;2.00;;
7493;SDS011;3788;49.902;8.590;2022-12-07T13:30:27;4.10;;;2.17;;
7493;SDS011;3788;49.902;8.590;2022-12-07T13:32:59;4.67;;;2.63;;
7493;SDS011;3788;49.902;8.590;2022-12-07T13:35:30;5.80;;;3.47;;
7493;SDS011;3788;49.902;8.590;2022-12-07T13:37:59;3.80;;;2.50;;
7493;SDS011;3788;49.902;8.590;2022-12-07T13:40:31;3.50;;;2.43;;
7493;SDS011;3788;49.902;8.590;2022-12-07T13:42:58;3.60;;;2.23;;
7493;SDS011;3788;49.902;8.590;2022-12-07T13:45:27;3.97;;;2.80;;
7493;SDS011;3788;49.902;8.590;2022-12-07T13:48:16;4.10;;;2.40;;
7493;SDS011;3788;49.902;8.590;2022-12-07T13:50:53;4.87;;;3.00;;
7493;SDS011;3788;49.902;8.590;2022-12-07T13:53:20;3.77;;;2.00;;
7493;SDS011;3788;49.902;8.590;2022-12-07T13:55:47;4.30;;;1.40;;
7493;SDS011;3788;49.902;8.590;2022-12-07T13:58:14;3.77;;;2.50;;
7493;SDS011;3788;49.902;8.590;2022-12-07T14:00:41;4.50;;;2.23;;
7493;SDS011;3788;49.902;8.590;2022-12-07T14:03:23;2.07;;;1.80;;
7493;SDS011;3788;49.902;8.590;2022-12-07T14:06:04;3.10;;;1.43;;
7493;SDS011;3788;49.902;8.590;2022-12-07T14:08:37;2.33;;;1.40;;
7493;SDS011;3788;49.902;8.590;2022-12-07T14:11:04;2.80;;;1.50;;
7493;SDS011;3788;49.902;8.590;2022-12-07T14:13:34;3.50;;;1.60;;
7493;SDS011;3788;49.902;8.590;2022-12-07T14:16:05;2.90;;;1.50;;
7493;SDS011;3788;49.902;8.590;2022-12-07T14:18:50;1.40;;;1.30;;
7493;SDS011;3788;49.902;8.590;2022-12-07T14:21:18;1.93;;;1.77;;
7493;SDS011;3788;49.902;8.590;2022-12-07T14:24:02;2.73;;;1.30;;
7493;SDS011;3788;49.902;8.590;2022-12-07T14:26:34;1.77;;;1.50;;
7493;SDS011;3788;49.902;8.590;2022-12-07T14:31:47;2.87;;;1.50;;
7493;SDS011;3788;49.902;8.590;2022-12-07T14:34:15;3.67;;;1.60;;
7493;SDS011;3788;49.902;8.590;2022-12-07T14:36:42;2.07;;;1.40;;
7493;SDS011;3788;49.902;8.590;2022-12-07T14:39:09;2.53;;;1.47;;
7493;SDS011;3788;49.902;8.590;2022-12-07T14:41:36;1.87;;;1.70;;
7493;SDS011;3788;49.902;8.590;2022-12-07T14:44:18;2.77;;;1.73;;
7493;SDS011;3788;49.902;8.590;2022-12-07T14:46:46;1.50;;;1.40;;
7493;SDS011;3788;49.902;8.590;2022-12-07T14:49:15;2.77;;;1.47;;
7493;SDS011;3788;49.902;8.590;2022-12-07T14:51:43;2.77;;;1.50;;
7493;SDS011;3788;49.902;8.590;2022-12-07T14:54:14;2.47;;;1.57;;
7493;SDS011;3788;49.902;8.590;2022-12-07T14:56:43;5.00;;;1.60;;
7493;SDS011;3788;49.902;8.590;2022-12-07T14:59:10;3.40;;;1.60;;
7493;SDS011;3788;49.902;8.590;2022-12-07T15:01:37;2.80;;;2.20;;
7493;SDS011;3788;49.902;8.590;2022-12-07T15:04:04;3.30;;;2.33;;
7493;SDS011;3788;49.902;8.590;2022-12-07T15:06:32;7.03;;;4.87;;
7493;SDS011;3788;49.902;8.590;2022-12-07T15:08:59;4.13;;;3.43;;
7493;SDS011;3788;49.902;8.590;2022-12-07T15:11:27;3.33;;;2.40;;
7493;SDS011;3788;49.902;8.590;2022-12-07T15:13:53;1.83;;;1.50;;
7493;SDS011;3788;49.902;8.590;2022-12-07T15:16:36;2.27;;;1.70;;
7493;SDS011;3788;49.902;8.590;2022-12-07T15:19:05;2.30;;;2.00;;
7493;SDS011;3788;49.902;8.590;2022-12-07T15:21:38;4.13;;;1.93;;
7493;SDS011;3788;49.902;8.590;2022-12-07T15:24:05;2.47;;;1.87;;
7493;SDS011;3788;49.902;8.590;2022-12-07T15:26:32;4.97;;;1.90;;
7493;SDS011;3788;49.902;8.590;2022-12-07T15:28:59;2.50;;;1.90;;
7493;SDS011;3788;49.902;8.590;2022-12-07T15:31:26;2.27;;;1.80;;
7493;SDS011;3788;49.902;8.590;2022-12-07T15:33:53;2.97;;;1.60;;
7493;SDS011;3788;49.902;8.590;2022-12-07T15:36:21;1.60;;;1.50;;
7493;SDS011;3788;49.902;8.590;2022-12-07T15:38:50;2.63;;;1.70;;
7493;SDS011;3788;49.902;8.590;2022-12-07T15:41:17;2.40;;;2.20;;
7493;SDS011;3788;49.902;8.590;2022-12-07T15:43:44;3.37;;;2.50;;
7493;SDS011;3788;49.902;8.590;2022-12-07T15:46:29;4.13;;;3.73;;
7493;SDS011;3788;49.902;8.590;2022-12-07T15:48:56;3.43;;;3.10;;
7493;SDS011;3788;49.902;8.590;2022-12-07T15:51:23;3.47;;;2.90;;
7493;SDS011;3788;49.902;8.590;2022-12-07T15:53:51;3.43;;;3.13;;
7493;SDS011;3788;49.902;8.590;2022-12-07T15:56:18;3.73;;;3.17;;
7493;SDS011;3788;49.902;8.590;2022-12-07T15:58:45;4.13;;;2.93;;
7493;SDS011;3788;49.902;8.590;2022-12-07T16:01:12;3.60;;;2.80;;
7493;SDS011;3788;49.902;8.590;2022-12-07T16:03:41;2.87;;;2.50;;
7493;SDS011;3788;49.902;8.590;2022-12-07T16:06:07;3.20;;;2.63;;
7493;SDS011;3788;49.902;8.590;2022-12-07T16:08:35;3.60;;;3.20;;